sensor_id;sensor_type;location;lat;lon;timestamp;P1;durP1;ratioP1;P2;durP2;ratioP2
9821;SDS011;4950;46.042;14.472;2024-01-25T00:00:38;40.20;;;27.67;;
9821;SDS011;4950;46.042;14.472;2024-01-25T00:03:04;41.58;;;27.88;;
9821;SDS011;4950;46.042;14.472;2024-01-25T00:05:32;42.97;;;28.17;;
9821;SDS011;4950;46.042;14.472;2024-01-25T00:07:59;39.33;;;26.92;;
9821;SDS011;4950;46.042;14.472;2024-01-25T00:10:26;40.95;;;27.23;;
9821;SDS011;4950;46.042;14.472;2024-01-25T00:12:53;43.13;;;27.75;;
9821;SDS011;4950;46.042;14.472;2024-01-25T00:15:19;41.10;;;27.58;;
9821;SDS011;4950;46.042;14.472;2024-01-25T00:17:46;44.22;;;27.50;;
9821;SDS011;4950;46.042;14.472;2024-01-25T00:20:13;42.38;;;26.75;;
9821;SDS011;4950;46.042;14.472;2024-01-25T00:22:41;38.17;;;25.98;;
9821;SDS011;4950;46.042;14.472;2024-01-25T00:25:08;41.50;;;26.63;;
9821;SDS011;4950;46.042;14.472;2024-01-25T00:27:34;42.22;;;26.58;;
9821;SDS011;4950;46.042;14.472;2024-01-25T00:30:01;42.78;;;25.65;;
9821;SDS011;4950;46.042;14.472;2024-01-25T00:32:29;34.45;;;23.58;;
9821;SDS011;4950;46.042;14.472;2024-01-25T00:34:56;35.80;;;24.00;;
9821;SDS011;4950;46.042;14.472;2024-01-25T00:37:23;34.70;;;24.17;;
9821;SDS011;4950;46.042;14.472;2024-01-25T00:39:52;36.70;;;24.20;;
9821;SDS011;4950;46.042;14.472;2024-01-25T00:42:20;39.78;;;25.38;;
9821;SDS011;4950;46.042;14.472;2024-01-25T00:44:48;37.88;;;25.45;;
9821;SDS011;4950;46.042;14.472;2024-01-25T00:47:16;37.33;;;24.15;;
9821;SDS011;4950;46.042;14.472;2024-01-25T00:49:43;38.08;;;23.83;;
9821;SDS011;4950;46.042;14.472;2024-01-25T00:52:10;36.28;;;24.63;;
9821;SDS011;4950;46.042;14.472;2024-01-25T00:54:38;39.50;;;25.75;;
9821;SDS011;4950;46.042;14.472;2024-01-25T00:57:07;40.70;;;25.77;;
9821;SDS011;4950;46.042;14.472;2024-01-25T00:59:35;40.75;;;25.85;;
9821;SDS011;4950;46.042;14.472;2024-01-25T01:02:02;37.67;;;25.42;;
9821;SDS011;4950;46.042;14.472;2024-01-25T01:04:31;40.00;;;26.10;;
9821;SDS011;4950;46.042;14.472;2024-01-25T01:06:58;40.47;;;26.48;;
9821;SDS011;4950;46.042;14.472;2024-01-25T01:09:25;38.20;;;26.38;;
9821;SDS011;4950;46.042;14.472;2024-01-25T01:11:52;41.75;;;27.88;;
9821;SDS011;4950;46.042;14.472;2024-01-25T01:14:19;42.13;;;25.98;;
9821;SDS011;4950;46.042;14.472;2024-01-25T01:16:46;43.78;;;27.05;;
9821;SDS011;4950;46.042;14.472;2024-01-25T01:19:12;44.80;;;27.67;;
9821;SDS011;4950;46.042;14.472;2024-01-25T01:21:39;41.45;;;27.23;;
9821;SDS011;4950;46.042;14.472;2024-01-25T01:24:09;39.30;;;26.85;;
9821;SDS011;4950;46.042;14.472;2024-01-25T01:26:35;44.20;;;26.05;;
9821;SDS011;4950;46.042;14.472;2024-01-25T01:29:02;38.90;;;26.23;;
9821;SDS011;4950;46.042;14.472;2024-01-25T01:31:30;45.22;;;26.83;;
9821;SDS011;4950;46.042;14.472;2024-01-25T01:33:57;41.53;;;26.45;;
9821;SDS011;4950;46.042;14.472;2024-01-25T01:36:24;37.50;;;26.25;;
9821;SDS011;4950;46.042;14.472;2024-01-25T01:38:50;41.00;;;25.98;;
9821;SDS011;4950;46.042;14.472;2024-01-25T01:41:17;39.50;;;27.52;;
9821;SDS011;4950;46.042;14.472;2024-01-25T01:43:44;42.30;;;27.63;;
9821;SDS011;4950;46.042;14.472;2024-01-25T01:46:12;43.08;;;26.15;;
9821;SDS011;4950;46.042;14.472;2024-01-25T01:48:48;40.97;;;26.65;;
9821;SDS011;4950;46.042;14.472;2024-01-25T01:51:14;40.90;;;26.70;;
9821;SDS011;4950;46.042;14.472;2024-01-25T01:53:41;42.05;;;27.30;;
9821;SDS011;4950;46.042;14.472;2024-01-25T01:56:08;40.75;;;27.98;;
9821;SDS011;4950;46.042;14.472;2024-01-25T01:58:36;43.05;;;28.70;;
9821;SDS011;4950;46.042;14.472;2024-01-25T02:01:03;49.25;;;30.38;;
9821;SDS011;4950;46.042;14.472;2024-01-25T02:03:31;45.00;;;29.23;;
9821;SDS011;4950;46.042;14.472;2024-01-25T02:05:59;46.13;;;29.27;;
9821;SDS011;4950;46.042;14.472;2024-01-25T02:08:27;44.88;;;28.65;;
9821;SDS011;4950;46.042;14.472;2024-01-25T02:10:54;46.45;;;29.58;;
9821;SDS011;4950;46.042;14.472;2024-01-25T02:13:21;47.20;;;30.08;;
9821;SDS011;4950;46.042;14.472;2024-01-25T02:15:48;40.75;;;28.08;;
9821;SDS011;4950;46.042;14.472;2024-01-25T02:18:14;40.30;;;28.00;;
9821;SDS011;4950;46.042;14.472;2024-01-25T02:20:41;46.03;;;28.55;;
9821;SDS011;4950;46.042;14.472;2024-01-25T02:23:09;44.58;;;27.20;;
9821;SDS011;4950;46.042;14.472;2024-01-25T02:25:36;44.17;;;27.15;;
9821;SDS011;4950;46.042;14.472;2024-01-25T02:28:03;42.72;;;27.25;;
9821;SDS011;4950;46.042;14.472;2024-01-25T02:30:30;43.65;;;26.98;;
9821;SDS011;4950;46.042;14.472;2024-01-25T02:32:57;41.42;;;27.38;;
9821;SDS011;4950;46.042;14.472;2024-01-25T02:35:23;46.22;;;27.95;;
9821;SDS011;4950;46.042;14.472;2024-01-25T02:37:50;46.20;;;29.75;;
9821;SDS011;4950;46.042;14.472;2024-01-25T02:40:18;44.85;;;28.00;;
9821;SDS011;4950;46.042;14.472;2024-01-25T02:42:45;42.80;;;27.20;;
9821;SDS011;4950;46.042;14.472;2024-01-25T02:45:12;43.58;;;28.55;;
9821;SDS011;4950;46.042;14.472;2024-01-25T02:47:38;47.35;;;27.95;;
9821;SDS011;4950;46.042;14.472;2024-01-25T02:50:05;44.00;;;28.20;;
9821;SDS011;4950;46.042;14.472;2024-01-25T02:52:32;45.30;;;28.95;;
9821;SDS011;4950;46.042;14.472;2024-01-25T02:54:59;44.95;;;29.13;;
9821;SDS011;4950;46.042;14.472;2024-01-25T02:57:27;46.60;;;28.67;;
9821;SDS011;4950;46.042;14.472;2024-01-25T02:59:56;47.47;;;30.20;;
9821;SDS011;4950;46.042;14.472;2024-01-25T03:02:23;48.08;;;30.58;;
9821;SDS011;4950;46.042;14.472;2024-01-25T03:04:49;44.20;;;29.75;;
9821;SDS011;4950;46.042;14.472;2024-01-25T03:07:16;50.40;;;29.67;;
9821;SDS011;4950;46.042;14.472;2024-01-25T03:09:43;43.22;;;29.30;;
9821;SDS011;4950;46.042;14.472;2024-01-25T03:12:09;46.47;;;28.70;;
9821;SDS011;4950;46.042;14.472;2024-01-25T03:14:38;42.20;;;27.13;;
9821;SDS011;4950;46.042;14.472;2024-01-25T03:17:04;43.13;;;27.90;;
9821;SDS011;4950;46.042;14.472;2024-01-25T03:19:31;41.45;;;27.55;;
9821;SDS011;4950;46.042;14.472;2024-01-25T03:21:59;41.15;;;26.70;;
9821;SDS011;4950;46.042;14.472;2024-01-25T03:24:26;45.80;;;27.58;;
9821;SDS011;4950;46.042;14.472;2024-01-25T03:26:53;41.25;;;27.63;;
9821;SDS011;4950;46.042;14.472;2024-01-25T03:29:20;41.85;;;27.65;;
9821;SDS011;4950;46.042;14.472;2024-01-25T03:31:48;47.97;;;29.35;;
9821;SDS011;4950;46.042;14.472;2024-01-25T03:34:15;44.88;;;27.77;;
9821;SDS011;4950;46.042;14.472;2024-01-25T03:36:42;44.83;;;27.95;;
9821;SDS011;4950;46.042;14.472;2024-01-25T03:39:08;42.53;;;27.67;;
9821;SDS011;4950;46.042;14.472;2024-01-25T03:41:35;44.10;;;28.63;;
9821;SDS011;4950;46.042;14.472;2024-01-25T03:44:02;44.20;;;26.92;;
9821;SDS011;4950;46.042;14.472;2024-01-25T03:46:28;46.25;;;28.75;;
9821;SDS011;4950;46.042;14.472;2024-01-25T03:48:57;47.75;;;28.55;;
9821;SDS011;4950;46.042;14.472;2024-01-25T03:51:23;48.60;;;29.85;;
9821;SDS011;4950;46.042;14.472;2024-01-25T03:53:51;47.75;;;29.27;;
9821;SDS011;4950;46.042;14.472;2024-01-25T03:56:20;42.50;;;28.77;;
9821;SDS011;4950;46.042;14.472;2024-01-25T03:58:48;41.75;;;27.63;;
9821;SDS011;4950;46.042;14.472;2024-01-25T04:01:14;41.25;;;26.75;;
9821;SDS011;4950;46.042;14.472;2024-01-25T04:03:41;45.65;;;27.73;;
9821;SDS011;4950;46.042;14.472;2024-01-25T04:06:09;38.55;;;25.90;;
9821;SDS011;4950;46.042;14.472;2024-01-25T04:08:36;47.63;;;28.88;;
9821;SDS011;4950;46.042;14.472;2024-01-25T04:11:02;40.85;;;27.13;;
9821;SDS011;4950;46.042;14.472;2024-01-25T04:13:29;37.88;;;25.58;;
9821;SDS011;4950;46.042;14.472;2024-01-25T04:15:56;40.78;;;27.83;;
9821;SDS011;4950;46.042;14.472;2024-01-25T04:18:23;38.88;;;26.98;;
9821;SDS011;4950;46.042;14.472;2024-01-25T04:20:49;39.05;;;26.55;;
9821;SDS011;4950;46.042;14.472;2024-01-25T04:23:18;41.78;;;26.85;;
9821;SDS011;4950;46.042;14.472;2024-01-25T04:25:44;40.42;;;27.75;;
9821;SDS011;4950;46.042;14.472;2024-01-25T04:28:12;40.38;;;27.10;;
9821;SDS011;4950;46.042;14.472;2024-01-25T04:30:38;44.97;;;27.85;;
9821;SDS011;4950;46.042;14.472;2024-01-25T04:33:05;43.25;;;28.38;;
9821;SDS011;4950;46.042;14.472;2024-01-25T04:35:32;40.30;;;26.77;;
9821;SDS011;4950;46.042;14.472;2024-01-25T04:37:59;49.72;;;27.42;;
9821;SDS011;4950;46.042;14.472;2024-01-25T04:40:27;44.70;;;28.00;;
9821;SDS011;4950;46.042;14.472;2024-01-25T04:42:54;45.63;;;28.00;;
9821;SDS011;4950;46.042;14.472;2024-01-25T04:45:20;43.70;;;27.42;;
9821;SDS011;4950;46.042;14.472;2024-01-25T04:47:47;42.72;;;27.23;;
9821;SDS011;4950;46.042;14.472;2024-01-25T04:50:14;47.05;;;28.33;;
9821;SDS011;4950;46.042;14.472;2024-01-25T04:52:41;45.83;;;28.60;;
9821;SDS011;4950;46.042;14.472;2024-01-25T04:55:08;44.65;;;28.75;;
9821;SDS011;4950;46.042;14.472;2024-01-25T04:57:36;46.38;;;28.52;;
9821;SDS011;4950;46.042;14.472;2024-01-25T05:00:03;40.22;;;28.23;;
9821;SDS011;4950;46.042;14.472;2024-01-25T05:02:30;42.25;;;28.50;;
9821;SDS011;4950;46.042;14.472;2024-01-25T05:04:57;40.97;;;27.98;;
9821;SDS011;4950;46.042;14.472;2024-01-25T05:07:23;42.08;;;28.05;;
9821;SDS011;4950;46.042;14.472;2024-01-25T05:09:50;41.28;;;29.30;;
9821;SDS011;4950;46.042;14.472;2024-01-25T05:12:17;46.42;;;30.13;;
9821;SDS011;4950;46.042;14.472;2024-01-25T05:14:45;45.70;;;29.17;;
9821;SDS011;4950;46.042;14.472;2024-01-25T05:17:12;46.88;;;30.23;;
9821;SDS011;4950;46.042;14.472;2024-01-25T05:19:38;46.53;;;30.70;;
9821;SDS011;4950;46.042;14.472;2024-01-25T05:22:05;45.78;;;30.90;;
9821;SDS011;4950;46.042;14.472;2024-01-25T05:24:32;47.78;;;32.38;;
9821;SDS011;4950;46.042;14.472;2024-01-25T05:26:59;49.28;;;31.27;;
9821;SDS011;4950;46.042;14.472;2024-01-25T05:29:27;52.78;;;32.42;;
9821;SDS011;4950;46.042;14.472;2024-01-25T05:31:57;51.25;;;33.10;;
9821;SDS011;4950;46.042;14.472;2024-01-25T05:34:24;49.30;;;33.20;;
9821;SDS011;4950;46.042;14.472;2024-01-25T05:36:50;45.78;;;32.58;;
9821;SDS011;4950;46.042;14.472;2024-01-25T05:39:18;45.97;;;31.92;;
9821;SDS011;4950;46.042;14.472;2024-01-25T05:41:45;48.55;;;32.53;;
9821;SDS011;4950;46.042;14.472;2024-01-25T05:44:12;50.50;;;33.78;;
9821;SDS011;4950;46.042;14.472;2024-01-25T05:46:39;47.65;;;34.42;;
9821;SDS011;4950;46.042;14.472;2024-01-25T05:49:07;48.05;;;31.58;;
9821;SDS011;4950;46.042;14.472;2024-01-25T05:51:33;45.33;;;31.33;;
9821;SDS011;4950;46.042;14.472;2024-01-25T05:54:01;49.88;;;32.28;;
9821;SDS011;4950;46.042;14.472;2024-01-25T05:56:28;47.55;;;32.88;;
9821;SDS011;4950;46.042;14.472;2024-01-25T05:58:55;45.05;;;32.03;;
9821;SDS011;4950;46.042;14.472;2024-01-25T06:01:21;51.78;;;32.50;;
9821;SDS011;4950;46.042;14.472;2024-01-25T06:03:48;48.90;;;33.15;;
9821;SDS011;4950;46.042;14.472;2024-01-25T06:06:16;49.42;;;32.88;;
9821;SDS011;4950;46.042;14.472;2024-01-25T06:08:43;46.55;;;31.48;;
9821;SDS011;4950;46.042;14.472;2024-01-25T06:11:10;49.20;;;33.08;;
9821;SDS011;4950;46.042;14.472;2024-01-25T06:13:36;57.17;;;33.92;;
9821;SDS011;4950;46.042;14.472;2024-01-25T06:16:03;45.67;;;31.45;;
9821;SDS011;4950;46.042;14.472;2024-01-25T06:18:30;54.58;;;36.15;;
9821;SDS011;4950;46.042;14.472;2024-01-25T06:20:57;56.72;;;36.03;;
9821;SDS011;4950;46.042;14.472;2024-01-25T06:23:25;62.97;;;39.47;;
9821;SDS011;4950;46.042;14.472;2024-01-25T06:25:52;67.10;;;39.83;;
9821;SDS011;4950;46.042;14.472;2024-01-25T06:28:19;62.33;;;37.15;;
9821;SDS011;4950;46.042;14.472;2024-01-25T06:30:46;57.35;;;35.75;;
9821;SDS011;4950;46.042;14.472;2024-01-25T06:33:13;51.08;;;31.45;;
9821;SDS011;4950;46.042;14.472;2024-01-25T06:35:39;45.28;;;29.95;;
9821;SDS011;4950;46.042;14.472;2024-01-25T06:38:06;53.25;;;32.17;;
9821;SDS011;4950;46.042;14.472;2024-01-25T06:40:34;54.75;;;33.60;;
9821;SDS011;4950;46.042;14.472;2024-01-25T06:43:01;48.58;;;32.97;;
9821;SDS011;4950;46.042;14.472;2024-01-25T06:45:28;50.28;;;33.50;;
9821;SDS011;4950;46.042;14.472;2024-01-25T06:47:55;49.33;;;33.65;;
9821;SDS011;4950;46.042;14.472;2024-01-25T06:50:22;48.63;;;31.80;;
9821;SDS011;4950;46.042;14.472;2024-01-25T06:52:49;49.17;;;33.40;;
9821;SDS011;4950;46.042;14.472;2024-01-25T06:55:18;49.75;;;33.25;;
9821;SDS011;4950;46.042;14.472;2024-01-25T06:57:46;52.45;;;33.78;;
9821;SDS011;4950;46.042;14.472;2024-01-25T07:00:14;48.17;;;33.70;;
9821;SDS011;4950;46.042;14.472;2024-01-25T07:02:41;49.58;;;32.97;;
9821;SDS011;4950;46.042;14.472;2024-01-25T07:05:08;46.15;;;32.00;;
9821;SDS011;4950;46.042;14.472;2024-01-25T07:07:35;52.92;;;33.00;;
9821;SDS011;4950;46.042;14.472;2024-01-25T07:10:03;43.80;;;31.15;;
9821;SDS011;4950;46.042;14.472;2024-01-25T07:12:31;53.90;;;33.58;;
9821;SDS011;4950;46.042;14.472;2024-01-25T07:14:59;47.45;;;32.03;;
9821;SDS011;4950;46.042;14.472;2024-01-25T07:17:26;53.90;;;34.60;;
9821;SDS011;4950;46.042;14.472;2024-01-25T07:19:53;47.75;;;33.10;;
9821;SDS011;4950;46.042;14.472;2024-01-25T07:22:19;51.50;;;33.47;;
9821;SDS011;4950;46.042;14.472;2024-01-25T07:24:47;45.50;;;30.27;;
9821;SDS011;4950;46.042;14.472;2024-01-25T07:27:14;49.65;;;29.92;;
9821;SDS011;4950;46.042;14.472;2024-01-25T07:29:42;42.65;;;29.60;;
9821;SDS011;4950;46.042;14.472;2024-01-25T07:32:11;44.88;;;28.90;;
9821;SDS011;4950;46.042;14.472;2024-01-25T07:34:38;42.95;;;28.77;;
9821;SDS011;4950;46.042;14.472;2024-01-25T07:37:05;44.20;;;29.77;;
9821;SDS011;4950;46.042;14.472;2024-01-25T07:39:32;45.00;;;28.05;;
9821;SDS011;4950;46.042;14.472;2024-01-25T07:41:58;42.55;;;29.33;;
9821;SDS011;4950;46.042;14.472;2024-01-25T07:44:25;44.25;;;29.70;;
9821;SDS011;4950;46.042;14.472;2024-01-25T07:46:52;45.65;;;28.30;;
9821;SDS011;4950;46.042;14.472;2024-01-25T07:49:20;43.38;;;27.70;;
9821;SDS011;4950;46.042;14.472;2024-01-25T07:51:47;45.22;;;30.23;;
9821;SDS011;4950;46.042;14.472;2024-01-25T07:54:14;42.15;;;29.75;;
9821;SDS011;4950;46.042;14.472;2024-01-25T07:56:41;39.83;;;28.70;;
9821;SDS011;4950;46.042;14.472;2024-01-25T07:59:07;47.03;;;29.92;;
9821;SDS011;4950;46.042;14.472;2024-01-25T08:04:36;48.08;;;30.83;;
9821;SDS011;4950;46.042;14.472;2024-01-25T08:07:03;49.65;;;31.70;;
9821;SDS011;4950;46.042;14.472;2024-01-25T08:09:30;48.00;;;32.38;;
9821;SDS011;4950;46.042;14.472;2024-01-25T08:11:56;49.80;;;33.60;;
9821;SDS011;4950;46.042;14.472;2024-01-25T08:14:23;44.75;;;31.48;;
9821;SDS011;4950;46.042;14.472;2024-01-25T08:16:50;47.08;;;32.55;;
9821;SDS011;4950;46.042;14.472;2024-01-25T08:19:16;48.90;;;32.53;;
9821;SDS011;4950;46.042;14.472;2024-01-25T08:21:45;50.33;;;32.70;;
9821;SDS011;4950;46.042;14.472;2024-01-25T08:24:12;47.45;;;31.75;;
9821;SDS011;4950;46.042;14.472;2024-01-25T08:26:38;48.00;;;32.88;;
9821;SDS011;4950;46.042;14.472;2024-01-25T08:29:05;49.03;;;33.78;;
9821;SDS011;4950;46.042;14.472;2024-01-25T08:31:32;54.47;;;34.88;;
9821;SDS011;4950;46.042;14.472;2024-01-25T08:33:59;51.53;;;33.53;;
9821;SDS011;4950;46.042;14.472;2024-01-25T08:36:25;63.83;;;41.42;;
9821;SDS011;4950;46.042;14.472;2024-01-25T08:38:54;52.55;;;35.33;;
9821;SDS011;4950;46.042;14.472;2024-01-25T08:41:20;51.65;;;35.55;;
9821;SDS011;4950;46.042;14.472;2024-01-25T08:43:47;51.30;;;35.33;;
9821;SDS011;4950;46.042;14.472;2024-01-25T08:46:14;53.67;;;34.95;;
9821;SDS011;4950;46.042;14.472;2024-01-25T08:48:41;51.08;;;35.10;;
9821;SDS011;4950;46.042;14.472;2024-01-25T08:51:08;49.72;;;36.38;;
9821;SDS011;4950;46.042;14.472;2024-01-25T08:53:35;52.90;;;35.58;;
9821;SDS011;4950;46.042;14.472;2024-01-25T08:56:03;54.03;;;35.47;;
9821;SDS011;4950;46.042;14.472;2024-01-25T08:58:31;52.38;;;35.20;;
9821;SDS011;4950;46.042;14.472;2024-01-25T09:00:57;59.85;;;36.47;;
9821;SDS011;4950;46.042;14.472;2024-01-25T09:06:25;49.40;;;33.88;;
9821;SDS011;4950;46.042;14.472;2024-01-25T09:08:52;52.35;;;35.97;;
9821;SDS011;4950;46.042;14.472;2024-01-25T09:11:20;55.42;;;36.40;;
9821;SDS011;4950;46.042;14.472;2024-01-25T09:13:47;46.60;;;33.28;;
9821;SDS011;4950;46.042;14.472;2024-01-25T09:16:15;51.67;;;34.53;;
9821;SDS011;4950;46.042;14.472;2024-01-25T09:18:42;52.85;;;36.78;;
9821;SDS011;4950;46.042;14.472;2024-01-25T09:21:09;54.85;;;36.08;;
9821;SDS011;4950;46.042;14.472;2024-01-25T09:23:36;61.47;;;37.10;;
9821;SDS011;4950;46.042;14.472;2024-01-25T09:26:02;61.75;;;38.03;;
9821;SDS011;4950;46.042;14.472;2024-01-25T09:28:31;53.10;;;36.33;;
9821;SDS011;4950;46.042;14.472;2024-01-25T09:30:57;61.45;;;36.08;;
9821;SDS011;4950;46.042;14.472;2024-01-25T09:33:24;50.22;;;35.17;;
9821;SDS011;4950;46.042;14.472;2024-01-25T09:35:51;48.78;;;34.47;;
9821;SDS011;4950;46.042;14.472;2024-01-25T09:38:17;54.35;;;35.55;;
9821;SDS011;4950;46.042;14.472;2024-01-25T09:40:44;48.22;;;34.40;;
9821;SDS011;4950;46.042;14.472;2024-01-25T09:43:11;53.30;;;35.78;;
9821;SDS011;4950;46.042;14.472;2024-01-25T09:45:40;52.15;;;34.65;;
9821;SDS011;4950;46.042;14.472;2024-01-25T09:48:07;56.50;;;36.50;;
9821;SDS011;4950;46.042;14.472;2024-01-25T09:50:34;49.72;;;34.40;;
9821;SDS011;4950;46.042;14.472;2024-01-25T09:53:02;49.17;;;34.80;;
9821;SDS011;4950;46.042;14.472;2024-01-25T09:55:32;49.63;;;36.65;;
9821;SDS011;4950;46.042;14.472;2024-01-25T09:58:00;50.20;;;35.15;;
9821;SDS011;4950;46.042;14.472;2024-01-25T10:00:28;52.95;;;37.10;;
9821;SDS011;4950;46.042;14.472;2024-01-25T10:02:57;57.65;;;38.28;;
9821;SDS011;4950;46.042;14.472;2024-01-25T10:05:24;55.92;;;38.55;;
9821;SDS011;4950;46.042;14.472;2024-01-25T10:07:51;53.05;;;38.83;;
9821;SDS011;4950;46.042;14.472;2024-01-25T10:10:16;54.60;;;38.33;;
9821;SDS011;4950;46.042;14.472;2024-01-25T10:12:43;64.88;;;39.97;;
9821;SDS011;4950;46.042;14.472;2024-01-25T10:15:10;60.63;;;40.35;;
9821;SDS011;4950;46.042;14.472;2024-01-25T10:17:38;63.80;;;41.28;;
9821;SDS011;4950;46.042;14.472;2024-01-25T10:20:06;61.25;;;42.13;;
9821;SDS011;4950;46.042;14.472;2024-01-25T10:22:36;65.28;;;44.67;;
9821;SDS011;4950;46.042;14.472;2024-01-25T10:25:04;61.83;;;41.97;;
9821;SDS011;4950;46.042;14.472;2024-01-25T10:27:31;56.15;;;39.72;;
9821;SDS011;4950;46.042;14.472;2024-01-25T10:29:58;53.22;;;37.10;;
9821;SDS011;4950;46.042;14.472;2024-01-25T10:32:26;55.00;;;38.38;;
9821;SDS011;4950;46.042;14.472;2024-01-25T10:34:52;51.22;;;36.15;;
9821;SDS011;4950;46.042;14.472;2024-01-25T10:37:21;49.92;;;36.70;;
9821;SDS011;4950;46.042;14.472;2024-01-25T10:39:49;48.03;;;34.15;;
9821;SDS011;4950;46.042;14.472;2024-01-25T10:42:16;47.80;;;33.22;;
9821;SDS011;4950;46.042;14.472;2024-01-25T10:44:43;48.28;;;33.42;;
9821;SDS011;4950;46.042;14.472;2024-01-25T10:47:10;44.95;;;31.60;;
9821;SDS011;4950;46.042;14.472;2024-01-25T10:49:38;43.75;;;32.30;;
9821;SDS011;4950;46.042;14.472;2024-01-25T10:52:05;46.75;;;33.17;;
9821;SDS011;4950;46.042;14.472;2024-01-25T10:54:36;44.67;;;31.02;;
9821;SDS011;4950;46.042;14.472;2024-01-25T10:57:04;44.25;;;29.90;;
9821;SDS011;4950;46.042;14.472;2024-01-25T10:59:32;40.30;;;29.60;;
9821;SDS011;4950;46.042;14.472;2024-01-25T11:02:00;43.40;;;30.05;;
9821;SDS011;4950;46.042;14.472;2024-01-25T11:04:27;43.53;;;30.17;;
9821;SDS011;4950;46.042;14.472;2024-01-25T11:07:03;39.22;;;27.67;;
9821;SDS011;4950;46.042;14.472;2024-01-25T11:09:33;38.88;;;27.85;;
9821;SDS011;4950;46.042;14.472;2024-01-25T11:12:08;42.13;;;28.02;;
9821;SDS011;4950;46.042;14.472;2024-01-25T11:14:37;35.20;;;27.75;;
9821;SDS011;4950;46.042;14.472;2024-01-25T11:17:14;40.95;;;29.02;;
9821;SDS011;4950;46.042;14.472;2024-01-25T11:19:41;41.10;;;28.42;;
9821;SDS011;4950;46.042;14.472;2024-01-25T11:22:10;42.72;;;29.45;;
9821;SDS011;4950;46.042;14.472;2024-01-25T11:24:39;39.95;;;26.83;;
9821;SDS011;4950;46.042;14.472;2024-01-25T11:27:06;45.35;;;27.25;;
9821;SDS011;4950;46.042;14.472;2024-01-25T11:29:32;39.08;;;26.10;;
9821;SDS011;4950;46.042;14.472;2024-01-25T11:31:59;34.25;;;22.85;;
9821;SDS011;4950;46.042;14.472;2024-01-25T11:34:26;33.33;;;21.38;;
9821;SDS011;4950;46.042;14.472;2024-01-25T11:36:53;30.08;;;19.10;;
9821;SDS011;4950;46.042;14.472;2024-01-25T11:39:19;24.77;;;18.02;;
9821;SDS011;4950;46.042;14.472;2024-01-25T11:41:47;25.48;;;20.20;;
9821;SDS011;4950;46.042;14.472;2024-01-25T11:44:17;28.52;;;21.30;;
9821;SDS011;4950;46.042;14.472;2024-01-25T11:46:44;32.65;;;23.38;;
9821;SDS011;4950;46.042;14.472;2024-01-25T11:49:14;31.35;;;22.95;;
9821;SDS011;4950;46.042;14.472;2024-01-25T11:51:41;39.60;;;26.27;;
9821;SDS011;4950;46.042;14.472;2024-01-25T11:54:08;36.80;;;25.05;;
9821;SDS011;4950;46.042;14.472;2024-01-25T11:56:35;39.47;;;26.08;;
9821;SDS011;4950;46.042;14.472;2024-01-25T11:59:06;31.02;;;23.95;;
9821;SDS011;4950;46.042;14.472;2024-01-25T12:01:37;34.50;;;25.48;;
9821;SDS011;4950;46.042;14.472;2024-01-25T12:04:05;40.03;;;26.50;;
9821;SDS011;4950;46.042;14.472;2024-01-25T12:06:32;39.33;;;26.85;;
9821;SDS011;4950;46.042;14.472;2024-01-25T12:09:05;35.75;;;24.42;;
9821;SDS011;4950;46.042;14.472;2024-01-25T12:11:33;31.15;;;25.67;;
9821;SDS011;4950;46.042;14.472;2024-01-25T12:14:00;32.28;;;24.90;;
9821;SDS011;4950;46.042;14.472;2024-01-25T12:16:28;34.47;;;23.60;;
9821;SDS011;4950;46.042;14.472;2024-01-25T12:18:55;34.58;;;23.45;;
9821;SDS011;4950;46.042;14.472;2024-01-25T12:21:22;32.28;;;24.05;;
9821;SDS011;4950;46.042;14.472;2024-01-25T12:23:49;30.80;;;23.65;;
9821;SDS011;4950;46.042;14.472;2024-01-25T12:26:17;31.50;;;23.77;;
9821;SDS011;4950;46.042;14.472;2024-01-25T12:28:44;35.92;;;28.17;;
9821;SDS011;4950;46.042;14.472;2024-01-25T12:31:10;35.85;;;26.13;;
9821;SDS011;4950;46.042;14.472;2024-01-25T12:33:41;33.13;;;23.70;;
9821;SDS011;4950;46.042;14.472;2024-01-25T12:36:08;39.30;;;23.60;;
9821;SDS011;4950;46.042;14.472;2024-01-25T12:38:35;31.50;;;22.00;;
9821;SDS011;4950;46.042;14.472;2024-01-25T12:41:02;32.15;;;22.90;;
9821;SDS011;4950;46.042;14.472;2024-01-25T12:43:29;33.22;;;21.63;;
9821;SDS011;4950;46.042;14.472;2024-01-25T12:45:55;31.38;;;23.25;;
9821;SDS011;4950;46.042;14.472;2024-01-25T12:48:22;27.02;;;18.90;;
9821;SDS011;4950;46.042;14.472;2024-01-25T12:50:50;26.45;;;18.13;;
9821;SDS011;4950;46.042;14.472;2024-01-25T12:53:17;24.77;;;18.13;;
9821;SDS011;4950;46.042;14.472;2024-01-25T12:55:44;25.40;;;18.25;;
9821;SDS011;4950;46.042;14.472;2024-01-25T12:58:11;27.65;;;19.70;;
9821;SDS011;4950;46.042;14.472;2024-01-25T13:00:37;23.35;;;16.42;;
9821;SDS011;4950;46.042;14.472;2024-01-25T13:03:04;25.42;;;17.80;;
9821;SDS011;4950;46.042;14.472;2024-01-25T13:05:31;26.92;;;18.25;;
9821;SDS011;4950;46.042;14.472;2024-01-25T13:08:00;27.83;;;21.23;;
9821;SDS011;4950;46.042;14.472;2024-01-25T13:10:28;27.98;;;21.27;;
9821;SDS011;4950;46.042;14.472;2024-01-25T13:12:54;29.13;;;21.75;;
9821;SDS011;4950;46.042;14.472;2024-01-25T13:15:21;26.52;;;19.88;;
9821;SDS011;4950;46.042;14.472;2024-01-25T13:17:48;31.92;;;22.20;;
9821;SDS011;4950;46.042;14.472;2024-01-25T13:20:15;26.10;;;18.85;;
9821;SDS011;4950;46.042;14.472;2024-01-25T13:22:42;28.85;;;20.73;;
9821;SDS011;4950;46.042;14.472;2024-01-25T13:25:10;27.42;;;21.35;;
9821;SDS011;4950;46.042;14.472;2024-01-25T13:27:37;31.45;;;21.45;;
9821;SDS011;4950;46.042;14.472;2024-01-25T13:30:04;34.80;;;20.90;;
9821;SDS011;4950;46.042;14.472;2024-01-25T13:32:32;21.65;;;17.50;;
9821;SDS011;4950;46.042;14.472;2024-01-25T13:34:58;28.17;;;20.27;;
9821;SDS011;4950;46.042;14.472;2024-01-25T13:37:25;26.20;;;19.52;;
9821;SDS011;4950;46.042;14.472;2024-01-25T13:39:52;25.15;;;18.83;;
9821;SDS011;4950;46.042;14.472;2024-01-25T13:42:20;23.67;;;18.88;;
9821;SDS011;4950;46.042;14.472;2024-01-25T13:44:46;25.98;;;19.25;;
9821;SDS011;4950;46.042;14.472;2024-01-25T13:47:13;26.75;;;19.85;;
9821;SDS011;4950;46.042;14.472;2024-01-25T13:49:40;25.65;;;18.95;;
9821;SDS011;4950;46.042;14.472;2024-01-25T13:52:06;27.05;;;19.95;;
9821;SDS011;4950;46.042;14.472;2024-01-25T13:54:42;25.60;;;19.05;;
9821;SDS011;4950;46.042;14.472;2024-01-25T13:57:09;25.23;;;18.90;;
9821;SDS011;4950;46.042;14.472;2024-01-25T13:59:37;28.88;;;19.77;;
9821;SDS011;4950;46.042;14.472;2024-01-25T14:02:03;24.95;;;19.48;;
9821;SDS011;4950;46.042;14.472;2024-01-25T14:04:30;26.80;;;21.00;;
9821;SDS011;4950;46.042;14.472;2024-01-25T14:06:57;22.50;;;16.52;;
9821;SDS011;4950;46.042;14.472;2024-01-25T14:09:23;27.20;;;19.55;;
9821;SDS011;4950;46.042;14.472;2024-01-25T14:11:50;22.80;;;18.85;;
9821;SDS011;4950;46.042;14.472;2024-01-25T14:14:17;24.10;;;18.10;;
9821;SDS011;4950;46.042;14.472;2024-01-25T14:16:45;21.60;;;16.88;;
9821;SDS011;4950;46.042;14.472;2024-01-25T14:19:12;23.77;;;18.98;;
9821;SDS011;4950;46.042;14.472;2024-01-25T14:21:38;21.98;;;17.23;;
9821;SDS011;4950;46.042;14.472;2024-01-25T14:24:05;27.90;;;18.55;;
9821;SDS011;4950;46.042;14.472;2024-01-25T14:26:32;24.70;;;18.52;;
9821;SDS011;4950;46.042;14.472;2024-01-25T14:28:58;31.40;;;21.23;;
9821;SDS011;4950;46.042;14.472;2024-01-25T14:31:25;31.67;;;22.33;;
9821;SDS011;4950;46.042;14.472;2024-01-25T14:33:53;28.30;;;22.55;;
9821;SDS011;4950;46.042;14.472;2024-01-25T14:36:20;32.53;;;21.98;;
9821;SDS011;4950;46.042;14.472;2024-01-25T14:38:46;31.02;;;22.38;;